sensor_id;sensor_type;location;lat;lon;timestamp;P1;durP1;ratioP1;P2;durP2;ratioP2
38611;SDS011;24368;52.156;20.788;2022-12-20T00:01:31;27.00;;;18.00;;
38611;SDS011;24368;52.156;20.788;2022-12-20T00:06:34;27.00;;;18.10;;
38611;SDS011;24368;52.156;20.788;2022-12-20T00:11:37;31.00;;;17.70;;
38611;SDS011;24368;52.156;20.788;2022-12-20T00:16:39;31.00;;;19.40;;
38611;SDS011;24368;52.156;20.788;2022-12-20T00:21:40;32.00;;;19.00;;
38611;SDS011;24368;52.156;20.788;2022-12-20T00:26:41;29.70;;;20.30;;
38611;SDS011;24368;52.156;20.788;2022-12-20T00:31:42;25.60;;;17.30;;
38611;SDS011;24368;52.156;20.788;2022-12-20T00:36:43;26.80;;;17.90;;
38611;SDS011;24368;52.156;20.788;2022-12-20T00:41:44;28.00;;;18.90;;
38611;SDS011;24368;52.156;20.788;2022-12-20T00:46:45;27.90;;;18.20;;
38611;SDS011;24368;52.156;20.788;2022-12-20T00:51:46;31.60;;;18.60;;
38611;SDS011;24368;52.156;20.788;2022-12-20T00:56:47;29.80;;;19.90;;
38611;SDS011;24368;52.156;20.788;2022-12-20T01:01:48;24.30;;;16.60;;
38611;SDS011;24368;52.156;20.788;2022-12-20T01:06:49;28.90;;;18.60;;
38611;SDS011;24368;52.156;20.788;2022-12-20T01:11:50;28.50;;;18.80;;
38611;SDS011;24368;52.156;20.788;2022-12-20T01:16:51;26.20;;;18.70;;
38611;SDS011;24368;52.156;20.788;2022-12-20T01:21:52;26.90;;;18.30;;
38611;SDS011;24368;52.156;20.788;2022-12-20T01:26:53;30.80;;;18.70;;
38611;SDS011;24368;52.156;20.788;2022-12-20T01:31:54;27.70;;;18.90;;
38611;SDS011;24368;52.156;20.788;2022-12-20T01:36:55;25.20;;;16.50;;
38611;SDS011;24368;52.156;20.788;2022-12-20T01:41:56;28.60;;;19.00;;
38611;SDS011;24368;52.156;20.788;2022-12-20T01:46:57;29.30;;;18.60;;
38611;SDS011;24368;52.156;20.788;2022-12-20T01:52:03;28.60;;;19.60;;
38611;SDS011;24368;52.156;20.788;2022-12-20T01:57:11;30.20;;;18.80;;
38611;SDS011;24368;52.156;20.788;2022-12-20T02:02:18;25.50;;;17.10;;
38611;SDS011;24368;52.156;20.788;2022-12-20T02:07:20;23.40;;;16.10;;
38611;SDS011;24368;52.156;20.788;2022-12-20T02:12:27;30.90;;;19.70;;
38611;SDS011;24368;52.156;20.788;2022-12-20T02:23:02;21.90;;;15.10;;
38611;SDS011;24368;52.156;20.788;2022-12-20T02:33:42;22.80;;;15.10;;
38611;SDS011;24368;52.156;20.788;2022-12-20T02:38:50;25.20;;;16.60;;
38611;SDS011;24368;52.156;20.788;2022-12-20T02:44:02;23.10;;;15.70;;
38611;SDS011;24368;52.156;20.788;2022-12-20T02:49:27;25.00;;;17.30;;
38611;SDS011;24368;52.156;20.788;2022-12-20T02:54:30;24.50;;;16.40;;
38611;SDS011;24368;52.156;20.788;2022-12-20T02:59:38;22.00;;;15.80;;
38611;SDS011;24368;52.156;20.788;2022-12-20T03:04:55;21.90;;;16.00;;
38611;SDS011;24368;52.156;20.788;2022-12-20T03:09:58;22.60;;;15.50;;
38611;SDS011;24368;52.156;20.788;2022-12-20T03:14:59;22.60;;;16.20;;
38611;SDS011;24368;52.156;20.788;2022-12-20T03:19:59;21.00;;;14.70;;
38611;SDS011;24368;52.156;20.788;2022-12-20T03:25:00;23.90;;;15.20;;
38611;SDS011;24368;52.156;20.788;2022-12-20T03:30:02;19.80;;;14.10;;
38611;SDS011;24368;52.156;20.788;2022-12-20T03:35:04;21.90;;;15.20;;
38611;SDS011;24368;52.156;20.788;2022-12-20T03:40:06;19.90;;;14.40;;
38611;SDS011;24368;52.156;20.788;2022-12-20T03:45:08;20.30;;;14.20;;
38611;SDS011;24368;52.156;20.788;2022-12-20T03:50:09;23.60;;;15.60;;
38611;SDS011;24368;52.156;20.788;2022-12-20T03:55:11;19.70;;;14.80;;
38611;SDS011;24368;52.156;20.788;2022-12-20T04:00:12;18.80;;;13.70;;
38611;SDS011;24368;52.156;20.788;2022-12-20T04:05:14;17.80;;;13.30;;
38611;SDS011;24368;52.156;20.788;2022-12-20T04:10:16;20.20;;;14.20;;
38611;SDS011;24368;52.156;20.788;2022-12-20T04:15:17;20.50;;;13.70;;
38611;SDS011;24368;52.156;20.788;2022-12-20T04:20:18;21.90;;;14.60;;
38611;SDS011;24368;52.156;20.788;2022-12-20T04:25:19;20.30;;;13.90;;
38611;SDS011;24368;52.156;20.788;2022-12-20T04:30:20;17.30;;;13.40;;
38611;SDS011;24368;52.156;20.788;2022-12-20T04:35:21;20.00;;;14.30;;
38611;SDS011;24368;52.156;20.788;2022-12-20T04:40:22;22.90;;;14.10;;
38611;SDS011;24368;52.156;20.788;2022-12-20T04:45:23;19.10;;;15.10;;
38611;SDS011;24368;52.156;20.788;2022-12-20T04:50:24;19.80;;;13.70;;
38611;SDS011;24368;52.156;20.788;2022-12-20T04:55:25;17.30;;;13.00;;
38611;SDS011;24368;52.156;20.788;2022-12-20T05:00:26;18.90;;;13.60;;
38611;SDS011;24368;52.156;20.788;2022-12-20T05:05:28;22.30;;;15.30;;
38611;SDS011;24368;52.156;20.788;2022-12-20T05:10:29;19.90;;;13.40;;
38611;SDS011;24368;52.156;20.788;2022-12-20T05:15:30;20.00;;;14.00;;
38611;SDS011;24368;52.156;20.788;2022-12-20T05:20:31;17.30;;;12.90;;
38611;SDS011;24368;52.156;20.788;2022-12-20T05:25:32;22.10;;;14.90;;
38611;SDS011;24368;52.156;20.788;2022-12-20T05:30:52;19.80;;;14.10;;
38611;SDS011;24368;52.156;20.788;2022-12-20T05:35:53;21.50;;;13.50;;
38611;SDS011;24368;52.156;20.788;2022-12-20T05:40:55;16.80;;;13.50;;
38611;SDS011;24368;52.156;20.788;2022-12-20T05:45:56;18.10;;;13.30;;
38611;SDS011;24368;52.156;20.788;2022-12-20T05:50:57;18.70;;;12.60;;
38611;SDS011;24368;52.156;20.788;2022-12-20T05:55:58;17.40;;;12.20;;
38611;SDS011;24368;52.156;20.788;2022-12-20T06:01:01;21.00;;;14.90;;
38611;SDS011;24368;52.156;20.788;2022-12-20T06:06:04;20.40;;;14.00;;
38611;SDS011;24368;52.156;20.788;2022-12-20T06:11:06;22.00;;;15.10;;
38611;SDS011;24368;52.156;20.788;2022-12-20T06:16:07;20.70;;;13.90;;
38611;SDS011;24368;52.156;20.788;2022-12-20T06:21:08;18.50;;;14.10;;
38611;SDS011;24368;52.156;20.788;2022-12-20T06:26:10;21.30;;;15.40;;
38611;SDS011;24368;52.156;20.788;2022-12-20T06:31:11;20.30;;;14.00;;
38611;SDS011;24368;52.156;20.788;2022-12-20T06:36:12;21.90;;;14.50;;
38611;SDS011;24368;52.156;20.788;2022-12-20T06:41:13;18.10;;;13.10;;
38611;SDS011;24368;52.156;20.788;2022-12-20T06:46:14;20.20;;;14.40;;
38611;SDS011;24368;52.156;20.788;2022-12-20T06:51:15;20.00;;;13.60;;
38611;SDS011;24368;52.156;20.788;2022-12-20T06:56:17;18.90;;;13.50;;
38611;SDS011;24368;52.156;20.788;2022-12-20T07:01:18;22.40;;;15.90;;
38611;SDS011;24368;52.156;20.788;2022-12-20T07:06:18;17.80;;;13.20;;
38611;SDS011;24368;52.156;20.788;2022-12-20T07:11:19;22.10;;;13.30;;
38611;SDS011;24368;52.156;20.788;2022-12-20T07:16:21;21.30;;;14.90;;
38611;SDS011;24368;52.156;20.788;2022-12-20T07:21:22;21.70;;;14.30;;
38611;SDS011;24368;52.156;20.788;2022-12-20T07:26:23;19.30;;;14.30;;
38611;SDS011;24368;52.156;20.788;2022-12-20T07:31:24;21.70;;;14.70;;
38611;SDS011;24368;52.156;20.788;2022-12-20T07:36:25;20.30;;;14.10;;
38611;SDS011;24368;52.156;20.788;2022-12-20T07:41:26;21.90;;;15.00;;
38611;SDS011;24368;52.156;20.788;2022-12-20T07:46:27;18.90;;;14.00;;
38611;SDS011;24368;52.156;20.788;2022-12-20T07:51:34;20.80;;;13.90;;
38611;SDS011;24368;52.156;20.788;2022-12-20T07:56:39;21.10;;;15.00;;
38611;SDS011;24368;52.156;20.788;2022-12-20T08:01:45;24.80;;;15.40;;
38611;SDS011;24368;52.156;20.788;2022-12-20T08:06:47;19.70;;;14.60;;
38611;SDS011;24368;52.156;20.788;2022-12-20T08:11:50;19.50;;;14.00;;
38611;SDS011;24368;52.156;20.788;2022-12-20T08:16:52;19.80;;;13.40;;
38611;SDS011;24368;52.156;20.788;2022-12-20T08:21:54;21.10;;;15.10;;
38611;SDS011;24368;52.156;20.788;2022-12-20T08:26:55;21.20;;;15.00;;
38611;SDS011;24368;52.156;20.788;2022-12-20T08:31:56;21.10;;;14.90;;
38611;SDS011;24368;52.156;20.788;2022-12-20T08:36:57;21.80;;;14.70;;
38611;SDS011;24368;52.156;20.788;2022-12-20T08:41:59;20.40;;;14.90;;
38611;SDS011;24368;52.156;20.788;2022-12-20T08:46:59;22.70;;;15.90;;
38611;SDS011;24368;52.156;20.788;2022-12-20T08:52:00;20.20;;;14.80;;
38611;SDS011;24368;52.156;20.788;2022-12-20T08:57:01;23.50;;;15.40;;
38611;SDS011;24368;52.156;20.788;2022-12-20T09:02:02;21.10;;;15.10;;
38611;SDS011;24368;52.156;20.788;2022-12-20T09:07:03;24.20;;;15.90;;
38611;SDS011;24368;52.156;20.788;2022-12-20T09:12:04;20.60;;;14.80;;
38611;SDS011;24368;52.156;20.788;2022-12-20T09:17:07;23.50;;;19.10;;
38611;SDS011;24368;52.156;20.788;2022-12-20T09:22:08;22.60;;;15.80;;
38611;SDS011;24368;52.156;20.788;2022-12-20T09:27:09;20.20;;;14.90;;
38611;SDS011;24368;52.156;20.788;2022-12-20T09:32:10;21.30;;;16.10;;
38611;SDS011;24368;52.156;20.788;2022-12-20T09:37:12;23.30;;;16.90;;
38611;SDS011;24368;52.156;20.788;2022-12-20T09:42:13;21.10;;;14.90;;
38611;SDS011;24368;52.156;20.788;2022-12-20T09:47:19;21.20;;;14.70;;
38611;SDS011;24368;52.156;20.788;2022-12-20T10:03:01;21.20;;;15.30;;
38611;SDS011;24368;52.156;20.788;2022-12-20T10:28:45;22.70;;;17.40;;
38611;SDS011;24368;52.156;20.788;2022-12-20T10:33:46;24.30;;;16.60;;
38611;SDS011;24368;52.156;20.788;2022-12-20T10:38:48;25.80;;;17.20;;
38611;SDS011;24368;52.156;20.788;2022-12-20T10:43:52;20.60;;;16.40;;
38611;SDS011;24368;52.156;20.788;2022-12-20T10:48:58;21.20;;;16.90;;
38611;SDS011;24368;52.156;20.788;2022-12-20T10:54:42;23.90;;;16.50;;
38611;SDS011;24368;52.156;20.788;2022-12-20T10:59:48;24.00;;;17.30;;
38611;SDS011;24368;52.156;20.788;2022-12-20T11:05:36;24.90;;;17.80;;
38611;SDS011;24368;52.156;20.788;2022-12-20T11:10:24;25.90;;;19.00;;
38611;SDS011;24368;52.156;20.788;2022-12-20T11:15:28;28.50;;;20.10;;
38611;SDS011;24368;52.156;20.788;2022-12-20T11:20:40;25.20;;;16.80;;
38611;SDS011;24368;52.156;20.788;2022-12-20T11:37:23;28.50;;;20.10;;
38611;SDS011;24368;52.156;20.788;2022-12-20T11:47:47;25.30;;;18.40;;
38611;SDS011;24368;52.156;20.788;2022-12-20T11:53:13;25.00;;;17.50;;
38611;SDS011;24368;52.156;20.788;2022-12-20T11:58:28;27.30;;;18.70;;
38611;SDS011;24368;52.156;20.788;2022-12-20T12:03:35;27.70;;;20.00;;
38611;SDS011;24368;52.156;20.788;2022-12-20T12:08:40;23.30;;;18.10;;
38611;SDS011;24368;52.156;20.788;2022-12-20T12:13:47;23.10;;;18.40;;
38611;SDS011;24368;52.156;20.788;2022-12-20T12:18:49;21.60;;;17.90;;
38611;SDS011;24368;52.156;20.788;2022-12-20T12:29:32;25.00;;;19.20;;
38611;SDS011;24368;52.156;20.788;2022-12-20T12:45:47;23.00;;;18.60;;
38611;SDS011;24368;52.156;20.788;2022-12-20T12:50:55;22.80;;;18.80;;
38611;SDS011;24368;52.156;20.788;2022-12-20T12:55:58;25.50;;;20.40;;
38611;SDS011;24368;52.156;20.788;2022-12-20T13:06:55;26.30;;;20.50;;
38611;SDS011;24368;52.156;20.788;2022-12-20T13:17:57;27.30;;;20.10;;
38611;SDS011;24368;52.156;20.788;2022-12-20T13:38:49;25.70;;;18.80;;
38611;SDS011;24368;52.156;20.788;2022-12-20T13:43:53;26.80;;;19.50;;
38611;SDS011;24368;52.156;20.788;2022-12-20T13:49:01;28.30;;;19.40;;
38611;SDS011;24368;52.156;20.788;2022-12-20T13:54:05;27.20;;;20.00;;
38611;SDS011;24368;52.156;20.788;2022-12-20T13:59:42;97.40;;;55.80;;
38611;SDS011;24368;52.156;20.788;2022-12-20T14:04:43;39.20;;;25.10;;
38611;SDS011;24368;52.156;20.788;2022-12-20T14:09:46;32.10;;;22.00;;
38611;SDS011;24368;52.156;20.788;2022-12-20T14:14:56;29.60;;;21.40;;
38611;SDS011;24368;52.156;20.788;2022-12-20T14:20:16;33.40;;;22.40;;
38611;SDS011;24368;52.156;20.788;2022-12-20T14:25:30;30.90;;;21.00;;
38611;SDS011;24368;52.156;20.788;2022-12-20T14:30:39;29.80;;;20.80;;
38611;SDS011;24368;52.156;20.788;2022-12-20T14:35:46;31.30;;;21.10;;
38611;SDS011;24368;52.156;20.788;2022-12-20T14:45:49;30.50;;;20.80;;
38611;SDS011;24368;52.156;20.788;2022-12-20T14:51:20;32.90;;;22.50;;
38611;SDS011;24368;52.156;20.788;2022-12-20T14:56:21;30.20;;;22.20;;
38611;SDS011;24368;52.156;20.788;2022-12-20T15:01:24;32.80;;;22.10;;
38611;SDS011;24368;52.156;20.788;2022-12-20T15:06:31;25.00;;;18.50;;
38611;SDS011;24368;52.156;20.788;2022-12-20T15:11:35;29.30;;;19.60;;
38611;SDS011;24368;52.156;20.788;2022-12-20T15:16:44;31.00;;;20.50;;
38611;SDS011;24368;52.156;20.788;2022-12-20T15:21:47;26.50;;;19.30;;
38611;SDS011;24368;52.156;20.788;2022-12-20T15:26:48;27.20;;;19.60;;
38611;SDS011;24368;52.156;20.788;2022-12-20T15:31:50;33.80;;;21.30;;
38611;SDS011;24368;52.156;20.788;2022-12-20T15:36:56;28.80;;;21.10;;
38611;SDS011;24368;52.156;20.788;2022-12-20T15:42:00;37.00;;;25.40;;
38611;SDS011;24368;52.156;20.788;2022-12-20T15:47:03;31.10;;;20.80;;
38611;SDS011;24368;52.156;20.788;2022-12-20T15:52:04;28.50;;;20.20;;
38611;SDS011;24368;52.156;20.788;2022-12-20T15:57:06;29.70;;;20.60;;
38611;SDS011;24368;52.156;20.788;2022-12-20T16:02:20;30.20;;;22.20;;
38611;SDS011;24368;52.156;20.788;2022-12-20T16:07:22;31.20;;;22.00;;
38611;SDS011;24368;52.156;20.788;2022-12-20T16:12:24;31.50;;;22.20;;
38611;SDS011;24368;52.156;20.788;2022-12-20T16:17:28;31.90;;;21.00;;
38611;SDS011;24368;52.156;20.788;2022-12-20T16:22:30;29.80;;;20.50;;
38611;SDS011;24368;52.156;20.788;2022-12-20T16:27:31;31.40;;;21.60;;
38611;SDS011;24368;52.156;20.788;2022-12-20T16:32:32;28.60;;;20.50;;
38611;SDS011;24368;52.156;20.788;2022-12-20T16:37:33;28.50;;;19.70;;
38611;SDS011;24368;52.156;20.788;2022-12-20T16:42:34;29.60;;;21.70;;
38611;SDS011;24368;52.156;20.788;2022-12-20T16:47:36;28.00;;;21.80;;
38611;SDS011;24368;52.156;20.788;2022-12-20T16:52:37;30.20;;;21.80;;
38611;SDS011;24368;52.156;20.788;2022-12-20T16:57:38;30.50;;;22.50;;
38611;SDS011;24368;52.156;20.788;2022-12-20T17:02:39;30.00;;;21.10;;
38611;SDS011;24368;52.156;20.788;2022-12-20T17:07:40;31.40;;;21.00;;
38611;SDS011;24368;52.156;20.788;2022-12-20T17:12:41;29.30;;;21.10;;
38611;SDS011;24368;52.156;20.788;2022-12-20T17:17:43;30.50;;;21.60;;
38611;SDS011;24368;52.156;20.788;2022-12-20T17:22:46;31.70;;;21.40;;
38611;SDS011;24368;52.156;20.788;2022-12-20T17:27:49;26.50;;;20.70;;
38611;SDS011;24368;52.156;20.788;2022-12-20T17:32:51;25.90;;;17.60;;
38611;SDS011;24368;52.156;20.788;2022-12-20T17:37:53;30.40;;;21.40;;
38611;SDS011;24368;52.156;20.788;2022-12-20T17:42:55;27.80;;;21.00;;
38611;SDS011;24368;52.156;20.788;2022-12-20T17:47:57;29.70;;;20.40;;
38611;SDS011;24368;52.156;20.788;2022-12-20T17:52:58;27.30;;;19.80;;
38611;SDS011;24368;52.156;20.788;2022-12-20T17:57:59;31.00;;;24.60;;
38611;SDS011;24368;52.156;20.788;2022-12-20T18:03:00;31.90;;;23.70;;
38611;SDS011;24368;52.156;20.788;2022-12-20T18:08:02;28.20;;;21.30;;
38611;SDS011;24368;52.156;20.788;2022-12-20T18:13:03;36.10;;;23.30;;
38611;SDS011;24368;52.156;20.788;2022-12-20T18:18:04;28.70;;;20.90;;
38611;SDS011;24368;52.156;20.788;2022-12-20T18:23:05;28.70;;;20.00;;
38611;SDS011;24368;52.156;20.788;2022-12-20T18:28:06;26.30;;;20.00;;
38611;SDS011;24368;52.156;20.788;2022-12-20T18:33:08;27.60;;;20.50;;
38611;SDS011;24368;52.156;20.788;2022-12-20T18:38:09;31.50;;;23.50;;
38611;SDS011;24368;52.156;20.788;2022-12-20T18:43:10;39.40;;;28.30;;
38611;SDS011;24368;52.156;20.788;2022-12-20T18:48:11;43.10;;;29.70;;
38611;SDS011;24368;52.156;20.788;2022-12-20T18:53:12;35.70;;;25.10;;
38611;SDS011;24368;52.156;20.788;2022-12-20T18:58:13;37.80;;;27.80;;
38611;SDS011;24368;52.156;20.788;2022-12-20T19:03:14;36.20;;;26.10;;
38611;SDS011;24368;52.156;20.788;2022-12-20T19:08:15;34.10;;;24.80;;
38611;SDS011;24368;52.156;20.788;2022-12-20T19:13:16;31.60;;;22.00;;
38611;SDS011;24368;52.156;20.788;2022-12-20T19:18:18;28.30;;;21.50;;
38611;SDS011;24368;52.156;20.788;2022-12-20T19:23:19;29.40;;;20.90;;
38611;SDS011;24368;52.156;20.788;2022-12-20T19:28:22;27.30;;;20.10;;
38611;SDS011;24368;52.156;20.788;2022-12-20T19:33:23;28.60;;;19.60;;
38611;SDS011;24368;52.156;20.788;2022-12-20T19:38:24;28.70;;;20.50;;
38611;SDS011;24368;52.156;20.788;2022-12-20T19:43:25;27.40;;;19.70;;
38611;SDS011;24368;52.156;20.788;2022-12-20T19:48:26;27.00;;;19.90;;
38611;SDS011;24368;52.156;20.788;2022-12-20T19:53:27;25.50;;;19.40;;
38611;SDS011;24368;52.156;20.788;2022-12-20T19:58:29;27.90;;;19.90;;
38611;SDS011;24368;52.156;20.788;2022-12-20T20:03:30;28.00;;;20.90;;
38611;SDS011;24368;52.156;20.788;2022-12-20T20:08:32;43.40;;;34.60;;
38611;SDS011;24368;52.156;20.788;2022-12-20T20:13:34;26.30;;;19.10;;
38611;SDS011;24368;52.156;20.788;2022-12-20T20:18:36;26.60;;;19.10;;
38611;SDS011;24368;52.156;20.788;2022-12-20T20:23:38;27.60;;;19.00;;
38611;SDS011;24368;52.156;20.788;2022-12-20T20:28:40;22.50;;;17.70;;
38611;SDS011;24368;52.156;20.788;2022-12-20T20:33:42;26.80;;;18.60;;
38611;SDS011;24368;52.156;20.788;2022-12-20T20:38:44;31.30;;;21.70;;
38611;SDS011;24368;52.156;20.788;2022-12-20T20:43:46;26.30;;;19.00;;
38611;SDS011;24368;52.156;20.788;2022-12-20T20:48:47;26.90;;;20.50;;
38611;SDS011;24368;52.156;20.788;2022-12-20T20:53:48;30.60;;;21.00;;
38611;SDS011;24368;52.156;20.788;2022-12-20T20:58:49;27.50;;;19.20;;
38611;SDS011;24368;52.156;20.788;2022-12-20T21:03:51;29.70;;;20.80;;
38611;SDS011;24368;52.156;20.788;2022-12-20T21:08:52;28.50;;;20.90;;
38611;SDS011;24368;52.156;20.788;2022-12-20T21:13:53;29.40;;;20.30;;
38611;SDS011;24368;52.156;20.788;2022-12-20T21:18:55;27.50;;;19.80;;
38611;SDS011;24368;52.156;20.788;2022-12-20T21:23:58;30.10;;;20.70;;
38611;SDS011;24368;52.156;20.788;2022-12-20T21:28:59;29.10;;;20.30;;
38611;SDS011;24368;52.156;20.788;2022-12-20T21:34:01;30.20;;;20.90;;
38611;SDS011;24368;52.156;20.788;2022-12-20T21:39:03;28.00;;;19.40;;
38611;SDS011;24368;52.156;20.788;2022-12-20T21:44:04;27.90;;;19.90;;
38611;SDS011;24368;52.156;20.788;2022-12-20T21:49:05;28.50;;;19.60;;
38611;SDS011;24368;52.156;20.788;2022-12-20T21:54:07;25.50;;;18.30;;
38611;SDS011;24368;52.156;20.788;2022-12-20T21:59:11;27.10;;;19.90;;
38611;SDS011;24368;52.156;20.788;2022-12-20T22:04:13;34.30;;;24.60;;
38611;SDS011;24368;52.156;20.788;2022-12-20T22:09:14;31.30;;;22.90;;
38611;SDS011;24368;52.156;20.788;2022-12-20T22:14:16;28.90;;;20.60;;
38611;SDS011;24368;52.156;20.788;2022-12-20T22:19:17;25.90;;;18.50;;
38611;SDS011;24368;52.156;20.788;2022-12-20T22:24:18;28.50;;;19.50;;
38611;SDS011;24368;52.156;20.788;2022-12-20T22:29:19;27.20;;;19.20;;
38611;SDS011;24368;52.156;20.788;2022-12-20T22:34:20;25.00;;;18.60;;
38611;SDS011;24368;52.156;20.788;2022-12-20T22:39:21;25.00;;;18.80;;
38611;SDS011;24368;52.156;20.788;2022-12-20T22:44:23;26.90;;;19.00;;
38611;SDS011;24368;52.156;20.788;2022-12-20T22:49:24;27.20;;;19.50;;
38611;SDS011;24368;52.156;20.788;2022-12-20T22:54:25;25.60;;;18.50;;
38611;SDS011;24368;52.156;20.788;2022-12-20T22:59:26;25.70;;;18.70;;
38611;SDS011;24368;52.156;20.788;2022-12-20T23:04:27;30.70;;;20.00;;
38611;SDS011;24368;52.156;20.788;2022-12-20T23:09:28;25.50;;;18.00;;
38611;SDS011;24368;52.156;20.788;2022-12-20T23:14:29;26.70;;;19.10;;
38611;SDS011;24368;52.156;20.788;2022-12-20T23:19:49;23.60;;;16.70;;
38611;SDS011;24368;52.156;20.788;2022-12-20T23:25:23;26.80;;;19.30;;
38611;SDS011;24368;52.156;20.788;2022-12-20T23:30:25;24.10;;;17.70;;
38611;SDS011;24368;52.156;20.788;2022-12-20T23:35:26;23.90;;;16.90;;
38611;SDS011;24368;52.156;20.788;2022-12-20T23:40:28;27.90;;;19.60;;
38611;SDS011;24368;52.156;20.788;2022-12-20T23:45:29;27.60;;;19.40;;
38611;SDS011;24368;52.156;20.788;2022-12-20T23:50:31;25.20;;;17.90;;
38611;SDS011;24368;52.156;20.788;2022-12-20T23:55:32;24.30;;;17.90;;
